Jawor — C6YH8 — position and weather

sailwx.info

Track history (hours):
 
Tides and Currents Weather Stations Pressure Air Temp Water Temp Dewpoint Dewpoint Depression Visibility Wind Speed Wind Dir Waves Ship Positions

Jawor

Last reported at 2016-Dec-07 08:30 UTC. Time now 2016-Dec-09 02:03 UTC.
Position N 25°27' W 079°34'.

Length 229 m; draft 9.1 m.

Type: Cargo ship. MMSI: 311034100.

Date/timePositionNaut miles runAvg speedWind from/ knotsBaromVisibWave heightAir tempDewpointWater temp
2016-Dec-07 08:30N 25°27' W 079°34'1010.4
2016-Dec-07 07:33N 25°37' W 079°33'1010.2
2016-Dec-07 06:32N 25°47' W 079°31'1110.2
2016-Dec-07 05:29N 25°58' W 079°28'  
2016-Nov-27 19:22N 37°21' W 029°47'1011.7
2016-Nov-27 18:33N 37°21' W 029°35'1211.7
2016-Nov-27 17:34N 37°20' W 029°20'1211.7
2016-Nov-27 16:33N 37°21' W 029°06'1211.7
2016-Nov-27 15:33N 37°21' W 028°51'1211.5
2016-Nov-27 14:33N 37°22' W 028°36'1111.5
2016-Nov-27 13:33N 37°22' W 028°22'1111.5
2016-Nov-27 12:33N 37°22' W 028°08'1211.5
2016-Nov-27 11:33N 37°22' W 027°53'1211.6
2016-Nov-27 10:33N 37°23' W 027°38'1711.5
2016-Nov-27 09:05N 37°23' W 027°17'  
Track history (hours):
 
Tides and Currents Weather Stations Pressure Air Temp Water Temp Dewpoint Dewpoint Depression Visibility Wind Speed Wind Dir Waves Ship Positions

Jawor

Last reported at 2016-Dec-07 08:30 UTC. Time now 2016-Dec-09 02:03 UTC.
Position N 25°27' W 079°34'.

Length 229 m; draft 9.1 m.

Type: Cargo ship. MMSI: 311034100.

Date/timePositionNaut miles runAvg speedWind from/ knotsBaromVisibWave heightAir tempDewpointWater temp
2016-Dec-07 08:30N 25°27' W 079°34'1010.4
2016-Dec-07 07:33N 25°37' W 079°33'1010.2
2016-Dec-07 06:32N 25°47' W 079°31'1110.2
2016-Dec-07 05:29N 25°58' W 079°28'  
2016-Nov-27 19:22N 37°21' W 029°47'1011.7
2016-Nov-27 18:33N 37°21' W 029°35'1211.7
2016-Nov-27 17:34N 37°20' W 029°20'1211.7
2016-Nov-27 16:33N 37°21' W 029°06'1211.7
2016-Nov-27 15:33N 37°21' W 028°51'1211.5
2016-Nov-27 14:33N 37°22' W 028°36'1111.5
2016-Nov-27 13:33N 37°22' W 028°22'1111.5
2016-Nov-27 12:33N 37°22' W 028°08'1211.5
2016-Nov-27 11:33N 37°22' W 027°53'1211.6
2016-Nov-27 10:33N 37°23' W 027°38'1711.5
2016-Nov-27 09:05N 37°23' W 027°17'  

Dump ship's entire track history